sensor_id;sensor_type;location;lat;lon;timestamp;P1;durP1;ratioP1;P2;durP2;ratioP2
34541;SDS011;20784;51.332;12.410;2024-02-15T06:26:11;2.67;;;1.40;;
34541;SDS011;20784;51.332;12.410;2024-02-15T06:28:37;1.70;;;1.40;;
34541;SDS011;20784;51.332;12.410;2024-02-15T06:31:21;2.55;;;1.80;;
34541;SDS011;20784;51.332;12.410;2024-02-15T06:34:08;3.25;;;1.75;;
34541;SDS011;20784;51.332;12.410;2024-02-15T06:36:54;2.30;;;1.40;;
34541;SDS011;20784;51.332;12.410;2024-02-15T06:40:01;2.78;;;1.38;;
34541;SDS011;20784;51.332;12.410;2024-02-15T06:45:53;1.70;;;1.50;;
34541;SDS011;20784;51.332;12.410;2024-02-15T06:49:26;2.20;;;1.48;;
34541;SDS011;20784;51.332;12.410;2024-02-15T06:52:03;1.65;;;1.23;;
34541;SDS011;20784;51.332;12.410;2024-02-15T06:54:53;4.88;;;1.67;;
34541;SDS011;20784;51.332;12.410;2024-02-15T06:57:19;1.48;;;1.30;;
34541;SDS011;20784;51.332;12.410;2024-02-15T07:02:55;1.92;;;1.50;;
34541;SDS011;20784;51.332;12.410;2024-02-15T07:05:29;3.83;;;1.60;;
34541;SDS011;20784;51.332;12.410;2024-02-15T07:14:14;1.80;;;1.25;;
34541;SDS011;20784;51.332;12.410;2024-02-15T07:20:22;4.05;;;1.67;;
34541;SDS011;20784;51.332;12.410;2024-02-15T07:23:25;2.00;;;1.40;;
34541;SDS011;20784;51.332;12.410;2024-02-15T07:26:34;2.95;;;1.70;;
34541;SDS011;20784;51.332;12.410;2024-02-15T07:29:28;2.33;;;1.83;;
34541;SDS011;20784;51.332;12.410;2024-02-15T07:32:14;2.42;;;1.90;;
34541;SDS011;20784;51.332;12.410;2024-02-15T07:35:02;2.88;;;1.80;;
34541;SDS011;20784;51.332;12.410;2024-02-15T07:41:06;6.65;;;2.40;;
34541;SDS011;20784;51.332;12.410;2024-02-15T07:43:32;2.75;;;2.22;;
34541;SDS011;20784;51.332;12.410;2024-02-15T07:46:22;3.53;;;2.60;;
34541;SDS011;20784;51.332;12.410;2024-02-15T07:49:10;2.33;;;1.92;;
34541;SDS011;20784;51.332;12.410;2024-02-15T07:52:08;3.40;;;2.38;;
34541;SDS011;20784;51.332;12.410;2024-02-15T07:54:59;3.63;;;2.60;;
34541;SDS011;20784;51.332;12.410;2024-02-15T07:57:54;7.13;;;2.30;;
34541;SDS011;20784;51.332;12.410;2024-02-15T08:00:23;3.47;;;2.55;;
34541;SDS011;20784;51.332;12.410;2024-02-15T08:03:20;4.60;;;2.67;;
34541;SDS011;20784;51.332;12.410;2024-02-15T08:06:02;8.73;;;4.18;;
34541;SDS011;20784;51.332;12.410;2024-02-15T08:08:38;3.65;;;2.60;;
34541;SDS011;20784;51.332;12.410;2024-02-15T08:11:15;3.17;;;2.58;;
34541;SDS011;20784;51.332;12.410;2024-02-15T08:13:59;6.68;;;2.40;;
34541;SDS011;20784;51.332;12.410;2024-02-15T08:20:14;3.55;;;2.25;;
34541;SDS011;20784;51.332;12.410;2024-02-15T08:23:10;3.15;;;2.13;;
34541;SDS011;20784;51.332;12.410;2024-02-15T08:26:07;3.72;;;2.53;;
34541;SDS011;20784;51.332;12.410;2024-02-15T08:28:56;5.28;;;2.55;;
34541;SDS011;20784;51.332;12.410;2024-02-15T08:31:51;5.30;;;2.38;;
34541;SDS011;20784;51.332;12.410;2024-02-15T08:34:32;2.92;;;2.50;;
34541;SDS011;20784;51.332;12.410;2024-02-15T08:37:17;4.07;;;2.25;;
34541;SDS011;20784;51.332;12.410;2024-02-15T08:40:20;3.67;;;2.55;;
34541;SDS011;20784;51.332;12.410;2024-02-15T08:43:17;2.97;;;2.30;;
34541;SDS011;20784;51.332;12.410;2024-02-15T08:46:28;4.20;;;2.95;;
34541;SDS011;20784;51.332;12.410;2024-02-15T08:48:56;4.25;;;2.38;;
34541;SDS011;20784;51.332;12.410;2024-02-15T08:51:42;6.20;;;2.58;;
34541;SDS011;20784;51.332;12.410;2024-02-15T08:54:16;4.55;;;2.15;;
34541;SDS011;20784;51.332;12.410;2024-02-15T08:56:57;4.32;;;2.42;;
34541;SDS011;20784;51.332;12.410;2024-02-15T08:59:25;2.55;;;2.35;;
34541;SDS011;20784;51.332;12.410;2024-02-15T09:01:56;7.55;;;2.08;;
34541;SDS011;20784;51.332;12.410;2024-02-15T09:04:25;7.78;;;2.90;;
34541;SDS011;20784;51.332;12.410;2024-02-15T09:07:20;3.80;;;2.22;;
34541;SDS011;20784;51.332;12.410;2024-02-15T09:10:17;3.05;;;2.30;;
34541;SDS011;20784;51.332;12.410;2024-02-15T09:16:02;6.85;;;2.47;;
34541;SDS011;20784;51.332;12.410;2024-02-15T09:18:55;4.35;;;2.30;;
34541;SDS011;20784;51.332;12.410;2024-02-15T09:21:58;2.97;;;2.10;;
34541;SDS011;20784;51.332;12.410;2024-02-15T09:24:33;2.95;;;2.08;;
34541;SDS011;20784;51.332;12.410;2024-02-15T09:27:05;3.33;;;2.10;;
34541;SDS011;20784;51.332;12.410;2024-02-15T09:29:31;3.15;;;2.28;;
34541;SDS011;20784;51.332;12.410;2024-02-15T09:32:06;2.90;;;2.08;;
34541;SDS011;20784;51.332;12.410;2024-02-15T09:41:09;3.20;;;2.17;;
34541;SDS011;20784;51.332;12.410;2024-02-15T09:43:44;2.63;;;1.77;;
34541;SDS011;20784;51.332;12.410;2024-02-15T09:46:19;2.42;;;1.65;;
34541;SDS011;20784;51.332;12.410;2024-02-15T09:48:51;3.13;;;1.73;;
34541;SDS011;20784;51.332;12.410;2024-02-15T09:51:35;4.10;;;1.85;;
34541;SDS011;20784;51.332;12.410;2024-02-15T09:57:46;3.08;;;1.83;;
34541;SDS011;20784;51.332;12.410;2024-02-15T10:10:49;2.05;;;1.45;;
34541;SDS011;20784;51.332;12.410;2024-02-15T10:17:14;3.42;;;1.90;;
34541;SDS011;20784;51.332;12.410;2024-02-15T10:20:11;5.95;;;2.22;;
34541;SDS011;20784;51.332;12.410;2024-02-15T10:23:19;7.30;;;2.38;;
34541;SDS011;20784;51.332;12.410;2024-02-15T10:29:57;3.47;;;1.70;;
34541;SDS011;20784;51.332;12.410;2024-02-15T10:40:33;4.73;;;2.00;;
34541;SDS011;20784;51.332;12.410;2024-02-15T10:43:37;5.22;;;2.08;;
34541;SDS011;20784;51.332;12.410;2024-02-15T10:53:47;4.20;;;2.00;;
34541;SDS011;20784;51.332;12.410;2024-02-15T11:06:53;3.63;;;1.60;;
34541;SDS011;20784;51.332;12.410;2024-02-15T11:09:40;3.40;;;2.00;;
34541;SDS011;20784;51.332;12.410;2024-02-15T11:12:41;2.10;;;1.65;;
34541;SDS011;20784;51.332;12.410;2024-02-15T11:18:51;3.85;;;1.60;;
34541;SDS011;20784;51.332;12.410;2024-02-15T11:22:07;3.97;;;2.03;;
34541;SDS011;20784;51.332;12.410;2024-02-15T11:25:20;2.60;;;1.60;;
34541;SDS011;20784;51.332;12.410;2024-02-15T12:07:22;4.50;;;1.73;;
34541;SDS011;20784;51.332;12.410;2024-02-15T12:10:16;3.22;;;1.45;;
34541;SDS011;20784;51.332;12.410;2024-02-15T12:13:04;3.42;;;1.60;;
34541;SDS011;20784;51.332;12.410;2024-02-15T12:16:03;3.45;;;1.70;;
34541;SDS011;20784;51.332;12.410;2024-02-15T12:22:14;2.25;;;1.45;;
34541;SDS011;20784;51.332;12.410;2024-02-15T12:25:34;4.75;;;1.58;;
34541;SDS011;20784;51.332;12.410;2024-02-15T12:35:38;3.00;;;1.42;;
34541;SDS011;20784;51.332;12.410;2024-02-15T12:41:37;3.05;;;1.23;;
34541;SDS011;20784;51.332;12.410;2024-02-15T12:44:30;3.80;;;1.48;;
34541;SDS011;20784;51.332;12.410;2024-02-15T12:47:13;3.65;;;1.23;;
34541;SDS011;20784;51.332;12.410;2024-02-15T12:50:15;2.50;;;1.42;;
34541;SDS011;20784;51.332;12.410;2024-02-15T12:56:34;1.42;;;1.17;;
34541;SDS011;20784;51.332;12.410;2024-02-15T12:59:23;1.50;;;1.08;;
34541;SDS011;20784;51.332;12.410;2024-02-15T13:12:56;1.33;;;1.08;;
34541;SDS011;20784;51.332;12.410;2024-02-15T13:16:03;4.95;;;1.30;;
34541;SDS011;20784;51.332;12.410;2024-02-15T13:19:02;2.13;;;1.20;;
34541;SDS011;20784;51.332;12.410;2024-02-15T13:24:46;2.83;;;0.95;;
34541;SDS011;20784;51.332;12.410;2024-02-15T13:31:09;3.63;;;1.25;;
34541;SDS011;20784;51.332;12.410;2024-02-15T13:33:49;1.67;;;1.33;;
34541;SDS011;20784;51.332;12.410;2024-02-15T13:36:26;2.75;;;1.10;;
34541;SDS011;20784;51.332;12.410;2024-02-15T13:39:26;6.25;;;1.40;;
34541;SDS011;20784;51.332;12.410;2024-02-15T13:42:03;3.50;;;1.38;;
34541;SDS011;20784;51.332;12.410;2024-02-15T13:44:35;3.45;;;1.40;;
34541;SDS011;20784;51.332;12.410;2024-02-15T13:47:33;4.30;;;1.20;;
34541;SDS011;20784;51.332;12.410;2024-02-15T13:50:08;1.98;;;1.58;;
34541;SDS011;20784;51.332;12.410;2024-02-15T13:52:45;2.78;;;1.70;;
34541;SDS011;20784;51.332;12.410;2024-02-15T13:55:17;4.40;;;1.23;;
34541;SDS011;20784;51.332;12.410;2024-02-15T13:58:02;2.05;;;1.33;;
34541;SDS011;20784;51.332;12.410;2024-02-15T14:00:43;2.50;;;1.13;;
34541;SDS011;20784;51.332;12.410;2024-02-15T14:03:34;1.50;;;1.10;;
34541;SDS011;20784;51.332;12.410;2024-02-15T14:06:05;1.88;;;1.10;;
34541;SDS011;20784;51.332;12.410;2024-02-15T14:08:44;1.45;;;1.00;;
34541;SDS011;20784;51.332;12.410;2024-02-15T14:11:21;1.58;;;1.00;;
34541;SDS011;20784;51.332;12.410;2024-02-15T14:14:05;2.22;;;1.17;;
34541;SDS011;20784;51.332;12.410;2024-02-15T14:16:53;2.75;;;1.13;;
34541;SDS011;20784;51.332;12.410;2024-02-15T14:19:24;1.20;;;1.02;;
34541;SDS011;20784;51.332;12.410;2024-02-15T14:21:57;1.83;;;1.02;;
34541;SDS011;20784;51.332;12.410;2024-02-15T14:24:34;4.03;;;0.85;;
34541;SDS011;20784;51.332;12.410;2024-02-15T14:26:59;1.73;;;0.80;;
34541;SDS011;20784;51.332;12.410;2024-02-15T14:29:25;4.05;;;0.95;;
34541;SDS011;20784;51.332;12.410;2024-02-15T14:31:54;0.95;;;0.80;;
34541;SDS011;20784;51.332;12.410;2024-02-15T14:34:38;2.55;;;0.90;;
34541;SDS011;20784;51.332;12.410;2024-02-15T14:37:10;3.53;;;1.10;;
34541;SDS011;20784;51.332;12.410;2024-02-15T14:39:36;2.13;;;1.00;;
34541;SDS011;20784;51.332;12.410;2024-02-15T14:42:02;2.40;;;1.20;;
34541;SDS011;20784;51.332;12.410;2024-02-15T14:44:27;1.95;;;0.98;;
34541;SDS011;20784;51.332;12.410;2024-02-15T14:46:53;1.05;;;0.70;;
34541;SDS011;20784;51.332;12.410;2024-02-15T14:49:19;1.15;;;0.90;;
34541;SDS011;20784;51.332;12.410;2024-02-15T14:51:44;2.53;;;1.30;;
34541;SDS011;20784;51.332;12.410;2024-02-15T14:56:43;3.28;;;1.10;;
34541;SDS011;20784;51.332;12.410;2024-02-15T14:59:10;1.95;;;1.30;;
34541;SDS011;20784;51.332;12.410;2024-02-15T15:01:36;1.42;;;1.00;;
34541;SDS011;20784;51.332;12.410;2024-02-15T15:04:02;1.63;;;0.93;;
34541;SDS011;20784;51.332;12.410;2024-02-15T15:06:34;2.33;;;1.00;;
34541;SDS011;20784;51.332;12.410;2024-02-15T15:09:18;2.95;;;1.20;;
34541;SDS011;20784;51.332;12.410;2024-02-15T15:12:02;2.17;;;1.02;;
34541;SDS011;20784;51.332;12.410;2024-02-15T15:14:46;2.15;;;1.00;;
34541;SDS011;20784;51.332;12.410;2024-02-15T15:22:23;1.05;;;0.90;;
34541;SDS011;20784;51.332;12.410;2024-02-15T15:24:52;0.90;;;0.90;;
34541;SDS011;20784;51.332;12.410;2024-02-15T15:27:20;1.05;;;0.88;;
34541;SDS011;20784;51.332;12.410;2024-02-15T15:29:54;1.77;;;1.00;;
34541;SDS011;20784;51.332;12.410;2024-02-15T15:32:25;2.08;;;0.98;;
34541;SDS011;20784;51.332;12.410;2024-02-15T15:34:58;4.35;;;1.00;;
34541;SDS011;20784;51.332;12.410;2024-02-15T15:37:30;1.83;;;1.00;;
34541;SDS011;20784;51.332;12.410;2024-02-15T15:39:56;1.42;;;1.20;;
34541;SDS011;20784;51.332;12.410;2024-02-15T15:42:36;1.55;;;1.27;;
34541;SDS011;20784;51.332;12.410;2024-02-15T15:51:00;1.38;;;1.00;;
34541;SDS011;20784;51.332;12.410;2024-02-15T15:53:40;2.13;;;1.45;;
34541;SDS011;20784;51.332;12.410;2024-02-15T15:56:09;1.40;;;0.93;;
34541;SDS011;20784;51.332;12.410;2024-02-15T16:01:50;2.45;;;1.80;;
34541;SDS011;20784;51.332;12.410;2024-02-15T16:04:26;6.05;;;3.58;;
34541;SDS011;20784;51.332;12.410;2024-02-15T16:07:13;13.18;;;8.32;;
34541;SDS011;20784;51.332;12.410;2024-02-15T16:09:39;7.30;;;1.95;;
34541;SDS011;20784;51.332;12.410;2024-02-15T16:12:11;1.80;;;1.08;;
34541;SDS011;20784;51.332;12.410;2024-02-15T16:14:39;3.40;;;1.30;;
34541;SDS011;20784;51.332;12.410;2024-02-15T16:17:05;24.98;;;16.10;;
34541;SDS011;20784;51.332;12.410;2024-02-15T16:19:34;4.47;;;3.38;;
34541;SDS011;20784;51.332;12.410;2024-02-15T16:22:02;2.88;;;1.33;;
34541;SDS011;20784;51.332;12.410;2024-02-15T16:24:28;2.03;;;1.02;;
34541;SDS011;20784;51.332;12.410;2024-02-15T16:26:57;1.65;;;1.10;;
34541;SDS011;20784;51.332;12.410;2024-02-15T16:29:23;1.50;;;0.95;;
34541;SDS011;20784;51.332;12.410;2024-02-15T16:31:55;1.88;;;1.13;;
34541;SDS011;20784;51.332;12.410;2024-02-15T16:34:36;2.10;;;1.10;;
34541;SDS011;20784;51.332;12.410;2024-02-15T16:37:12;3.53;;;1.27;;
34541;SDS011;20784;51.332;12.410;2024-02-15T16:40:01;7.03;;;1.98;;
34541;SDS011;20784;51.332;12.410;2024-02-15T16:46:04;2.92;;;1.05;;
34541;SDS011;20784;51.332;12.410;2024-02-15T16:48:30;1.52;;;1.10;;
34541;SDS011;20784;51.332;12.410;2024-02-15T16:54:22;1.92;;;1.55;;
34541;SDS011;20784;51.332;12.410;2024-02-15T16:57:08;7.32;;;1.80;;
34541;SDS011;20784;51.332;12.410;2024-02-15T17:00:06;4.13;;;1.60;;
34541;SDS011;20784;51.332;12.410;2024-02-15T17:05:44;3.05;;;1.65;;
34541;SDS011;20784;51.332;12.410;2024-02-15T17:08:12;2.60;;;1.58;;
34541;SDS011;20784;51.332;12.410;2024-02-15T17:10:59;3.22;;;1.80;;
34541;SDS011;20784;51.332;12.410;2024-02-15T17:13:56;2.92;;;1.77;;
34541;SDS011;20784;51.332;12.410;2024-02-15T17:16:54;3.28;;;1.83;;
34541;SDS011;20784;51.332;12.410;2024-02-15T17:19:52;3.03;;;1.73;;
34541;SDS011;20784;51.332;12.410;2024-02-15T17:22:23;3.17;;;1.70;;
34541;SDS011;20784;51.332;12.410;2024-02-15T17:24:49;3.38;;;1.65;;
34541;SDS011;20784;51.332;12.410;2024-02-15T17:27:18;3.65;;;1.63;;
34541;SDS011;20784;51.332;12.410;2024-02-15T17:29:44;4.72;;;1.60;;
34541;SDS011;20784;51.332;12.410;2024-02-15T17:32:30;2.15;;;1.40;;
34541;SDS011;20784;51.332;12.410;2024-02-15T17:34:58;2.05;;;1.40;;
34541;SDS011;20784;51.332;12.410;2024-02-15T17:37:33;3.65;;;1.52;;
34541;SDS011;20784;51.332;12.410;2024-02-15T17:42:48;2.10;;;1.50;;
34541;SDS011;20784;51.332;12.410;2024-02-15T17:45:17;4.00;;;1.70;;
34541;SDS011;20784;51.332;12.410;2024-02-15T17:47:52;4.40;;;2.25;;
34541;SDS011;20784;51.332;12.410;2024-02-15T17:50:21;4.10;;;1.40;;
34541;SDS011;20784;51.332;12.410;2024-02-15T17:52:50;3.38;;;1.90;;
34541;SDS011;20784;51.332;12.410;2024-02-15T17:55:17;4.80;;;2.20;;
34541;SDS011;20784;51.332;12.410;2024-02-15T17:57:42;8.18;;;2.50;;
34541;SDS011;20784;51.332;12.410;2024-02-15T18:00:32;7.65;;;3.25;;
34541;SDS011;20784;51.332;12.410;2024-02-15T18:03:04;2.60;;;1.90;;
34541;SDS011;20784;51.332;12.410;2024-02-15T18:05:43;5.30;;;2.30;;
34541;SDS011;20784;51.332;12.410;2024-02-15T18:08:16;7.43;;;3.33;;
34541;SDS011;20784;51.332;12.410;2024-02-15T18:14:05;5.38;;;2.55;;
34541;SDS011;20784;51.332;12.410;2024-02-15T18:16:42;7.97;;;3.17;;
34541;SDS011;20784;51.332;12.410;2024-02-15T18:19:14;3.83;;;2.40;;
34541;SDS011;20784;51.332;12.410;2024-02-15T18:21:40;3.92;;;2.45;;
34541;SDS011;20784;51.332;12.410;2024-02-15T18:24:06;4.25;;;2.70;;
34541;SDS011;20784;51.332;12.410;2024-02-15T18:26:31;3.83;;;2.80;;
34541;SDS011;20784;51.332;12.410;2024-02-15T18:28:59;7.47;;;2.65;;
34541;SDS011;20784;51.332;12.410;2024-02-15T18:31:24;3.88;;;2.60;;
34541;SDS011;20784;51.332;12.410;2024-02-15T18:33:50;5.15;;;2.75;;
34541;SDS011;20784;51.332;12.410;2024-02-15T18:36:19;4.32;;;2.90;;
34541;SDS011;20784;51.332;12.410;2024-02-15T18:38:45;8.13;;;3.25;;
34541;SDS011;20784;51.332;12.410;2024-02-15T18:41:12;6.97;;;3.15;;
34541;SDS011;20784;51.332;12.410;2024-02-15T18:43:37;4.60;;;2.53;;
34541;SDS011;20784;51.332;12.410;2024-02-15T18:46:04;3.42;;;2.83;;
34541;SDS011;20784;51.332;12.410;2024-02-15T18:48:32;7.25;;;3.45;;
34541;SDS011;20784;51.332;12.410;2024-02-15T18:50:58;3.55;;;3.00;;
34541;SDS011;20784;51.332;12.410;2024-02-15T18:53:24;6.03;;;3.38;;
34541;SDS011;20784;51.332;12.410;2024-02-15T18:55:55;7.88;;;3.72;;
34541;SDS011;20784;51.332;12.410;2024-02-15T18:58:20;6.80;;;3.53;;
34541;SDS011;20784;51.332;12.410;2024-02-15T19:00:47;6.05;;;3.08;;
34541;SDS011;20784;51.332;12.410;2024-02-15T19:03:13;12.02;;;3.63;;
34541;SDS011;20784;51.332;12.410;2024-02-15T19:05:41;4.85;;;3.30;;
34541;SDS011;20784;51.332;12.410;2024-02-15T19:08:09;6.30;;;3.42;;
34541;SDS011;20784;51.332;12.410;2024-02-15T19:10:34;6.65;;;4.30;;
34541;SDS011;20784;51.332;12.410;2024-02-15T19:13:00;11.80;;;4.05;;
34541;SDS011;20784;51.332;12.410;2024-02-15T19:15:26;6.38;;;3.33;;
34541;SDS011;20784;51.332;12.410;2024-02-15T19:17:51;8.23;;;3.63;;
34541;SDS011;20784;51.332;12.410;2024-02-15T19:20:17;6.75;;;3.72;;
34541;SDS011;20784;51.332;12.410;2024-02-15T19:22:43;6.43;;;3.70;;
34541;SDS011;20784;51.332;12.410;2024-02-15T19:25:09;6.57;;;3.85;;
34541;SDS011;20784;51.332;12.410;2024-02-15T19:27:42;5.65;;;3.63;;
34541;SDS011;20784;51.332;12.410;2024-02-15T19:30:11;6.18;;;3.78;;
34541;SDS011;20784;51.332;12.410;2024-02-15T19:32:40;3.88;;;3.22;;
34541;SDS011;20784;51.332;12.410;2024-02-15T19:35:06;7.38;;;3.90;;
34541;SDS011;20784;51.332;12.410;2024-02-15T19:37:32;7.75;;;3.70;;
34541;SDS011;20784;51.332;12.410;2024-02-15T19:39:59;6.75;;;3.95;;
34541;SDS011;20784;51.332;12.410;2024-02-15T19:42:24;7.60;;;3.70;;
34541;SDS011;20784;51.332;12.410;2024-02-15T19:44:50;4.38;;;3.53;;
34541;SDS011;20784;51.332;12.410;2024-02-15T19:47:19;9.43;;;4.10;;
34541;SDS011;20784;51.332;12.410;2024-02-15T19:49:48;5.00;;;3.42;;
34541;SDS011;20784;51.332;12.410;2024-02-15T19:52:17;9.35;;;4.10;;
34541;SDS011;20784;51.332;12.410;2024-02-15T19:54:48;6.60;;;3.67;;
34541;SDS011;20784;51.332;12.410;2024-02-15T19:57:14;11.13;;;3.80;;
34541;SDS011;20784;51.332;12.410;2024-02-15T19:59:44;8.43;;;4.63;;
34541;SDS011;20784;51.332;12.410;2024-02-15T20:02:13;11.82;;;6.78;;
34541;SDS011;20784;51.332;12.410;2024-02-15T20:04:41;8.07;;;4.50;;
34541;SDS011;20784;51.332;12.410;2024-02-15T20:07:06;10.15;;;5.95;;
34541;SDS011;20784;51.332;12.410;2024-02-15T20:09:33;6.72;;;3.92;;
34541;SDS011;20784;51.332;12.410;2024-02-15T20:11:58;10.68;;;6.22;;
34541;SDS011;20784;51.332;12.410;2024-02-15T20:14:31;11.27;;;4.25;;
34541;SDS011;20784;51.332;12.410;2024-02-15T20:17:04;8.93;;;5.75;;
34541;SDS011;20784;51.332;12.410;2024-02-15T20:19:38;6.57;;;4.80;;
34541;SDS011;20784;51.332;12.410;2024-02-15T20:22:13;11.02;;;5.88;;
34541;SDS011;20784;51.332;12.410;2024-02-15T20:24:41;7.30;;;4.47;;
34541;SDS011;20784;51.332;12.410;2024-02-15T20:27:12;9.07;;;4.20;;
34541;SDS011;20784;51.332;12.410;2024-02-15T20:29:38;14.10;;;5.13;;
34541;SDS011;20784;51.332;12.410;2024-02-15T20:32:21;7.80;;;5.65;;
34541;SDS011;20784;51.332;12.410;2024-02-15T20:34:47;12.13;;;4.55;;
34541;SDS011;20784;51.332;12.410;2024-02-15T20:37:13;7.72;;;3.88;;
34541;SDS011;20784;51.332;12.410;2024-02-15T20:39:39;6.35;;;3.78;;
34541;SDS011;20784;51.332;12.410;2024-02-15T20:42:10;8.05;;;4.90;;
34541;SDS011;20784;51.332;12.410;2024-02-15T20:44:44;7.10;;;4.68;;
34541;SDS011;20784;51.332;12.410;2024-02-15T20:47:12;7.88;;;4.78;;
34541;SDS011;20784;51.332;12.410;2024-02-15T20:49:39;5.70;;;3.47;;
34541;SDS011;20784;51.332;12.410;2024-02-15T20:52:05;4.80;;;3.75;;
34541;SDS011;20784;51.332;12.410;2024-02-15T20:54:32;8.00;;;4.25;;
34541;SDS011;20784;51.332;12.410;2024-02-15T20:56:58;6.80;;;3.90;;
34541;SDS011;20784;51.332;12.410;2024-02-15T20:59:26;7.47;;;3.92;;
34541;SDS011;20784;51.332;12.410;2024-02-15T21:01:55;5.10;;;3.47;;
34541;SDS011;20784;51.332;12.410;2024-02-15T21:04:26;4.53;;;3.58;;
34541;SDS011;20784;51.332;12.410;2024-02-15T21:06:51;4.55;;;3.35;;
34541;SDS011;20784;51.332;12.410;2024-02-15T21:09:20;4.40;;;3.50;;
34541;SDS011;20784;51.332;12.410;2024-02-15T21:11:45;6.05;;;3.42;;
34541;SDS011;20784;51.332;12.410;2024-02-15T21:14:11;6.22;;;3.88;;
34541;SDS011;20784;51.332;12.410;2024-02-15T21:16:39;6.32;;;3.40;;
34541;SDS011;20784;51.332;12.410;2024-02-15T21:19:05;6.93;;;4.00;;
34541;SDS011;20784;51.332;12.410;2024-02-15T21:21:36;6.47;;;3.50;;
34541;SDS011;20784;51.332;12.410;2024-02-15T21:24:03;5.40;;;3.08;;
34541;SDS011;20784;51.332;12.410;2024-02-15T21:26:30;5.78;;;3.30;;
34541;SDS011;20784;51.332;12.410;2024-02-15T21:29:01;6.55;;;3.50;;
34541;SDS011;20784;51.332;12.410;2024-02-15T21:31:27;4.28;;;3.25;;
34541;SDS011;20784;51.332;12.410;2024-02-15T21:33:52;7.50;;;4.13;;
34541;SDS011;20784;51.332;12.410;2024-02-15T21:36:21;5.50;;;4.00;;
34541;SDS011;20784;51.332;12.410;2024-02-15T21:38:46;5.05;;;3.60;;
34541;SDS011;20784;51.332;12.410;2024-02-15T21:41:15;4.28;;;3.05;;
34541;SDS011;20784;51.332;12.410;2024-02-15T21:43:40;9.32;;;4.10;;
34541;SDS011;20784;51.332;12.410;2024-02-15T21:46:06;4.78;;;3.50;;
34541;SDS011;20784;51.332;12.410;2024-02-15T21:48:33;7.35;;;3.92;;
34541;SDS011;20784;51.332;12.410;2024-02-15T21:50:58;8.07;;;3.28;;
34541;SDS011;20784;51.332;12.410;2024-02-15T21:53:24;7.22;;;3.70;;
34541;SDS011;20784;51.332;12.410;2024-02-15T21:55:53;4.43;;;3.35;;
34541;SDS011;20784;51.332;12.410;2024-02-15T21:58:23;4.43;;;3.43;;
34541;SDS011;20784;51.332;12.410;2024-02-15T22:00:49;6.03;;;3.80;;
34541;SDS011;20784;51.332;12.410;2024-02-15T22:03:14;4.05;;;3.22;;
34541;SDS011;20784;51.332;12.410;2024-02-15T22:05:42;3.90;;;3.35;;
34541;SDS011;20784;51.332;12.410;2024-02-15T22:08:09;5.20;;;3.30;;
34541;SDS011;20784;51.332;12.410;2024-02-15T22:10:39;6.20;;;3.97;;
34541;SDS011;20784;51.332;12.410;2024-02-15T22:13:05;4.93;;;3.20;;
34541;SDS011;20784;51.332;12.410;2024-02-15T22:15:31;4.63;;;3.17;;
34541;SDS011;20784;51.332;12.410;2024-02-15T22:17:58;5.63;;;3.20;;
34541;SDS011;20784;51.332;12.410;2024-02-15T22:20:24;5.40;;;3.60;;
34541;SDS011;20784;51.332;12.410;2024-02-15T22:22:52;7.60;;;3.42;;
34541;SDS011;20784;51.332;12.410;2024-02-15T22:25:19;5.72;;;3.10;;
34541;SDS011;20784;51.332;12.410;2024-02-15T22:27:44;5.43;;;3.17;;
34541;SDS011;20784;51.332;12.410;2024-02-15T22:30:10;6.40;;;3.17;;
34541;SDS011;20784;51.332;12.410;2024-02-15T22:32:37;5.50;;;3.78;;
34541;SDS011;20784;51.332;12.410;2024-02-15T22:35:03;4.20;;;3.20;;
34541;SDS011;20784;51.332;12.410;2024-02-15T22:37:28;6.60;;;3.85;;
34541;SDS011;20784;51.332;12.410;2024-02-15T22:39:54;7.45;;;3.55;;
34541;SDS011;20784;51.332;12.410;2024-02-15T22:42:20;5.93;;;3.42;;
34541;SDS011;20784;51.332;12.410;2024-02-15T22:44:46;5.30;;;3.33;;
34541;SDS011;20784;51.332;12.410;2024-02-15T22:47:12;5.90;;;3.38;;
34541;SDS011;20784;51.332;12.410;2024-02-15T22:49:39;5.32;;;3.42;;
34541;SDS011;20784;51.332;12.410;2024-02-15T22:52:05;11.43;;;3.50;;
34541;SDS011;20784;51.332;12.410;2024-02-15T22:54:34;6.97;;;3.25;;
34541;SDS011;20784;51.332;12.410;2024-02-15T22:57:05;8.75;;;3.47;;
34541;SDS011;20784;51.332;12.410;2024-02-15T22:59:30;6.05;;;3.50;;
34541;SDS011;20784;51.332;12.410;2024-02-15T23:01:56;6.28;;;3.78;;
34541;SDS011;20784;51.332;12.410;2024-02-15T23:04:25;5.22;;;3.33;;
34541;SDS011;20784;51.332;12.410;2024-02-15T23:06:50;7.93;;;3.60;;
34541;SDS011;20784;51.332;12.410;2024-02-15T23:09:16;5.93;;;3.45;;
34541;SDS011;20784;51.332;12.410;2024-02-15T23:11:41;5.95;;;3.65;;
34541;SDS011;20784;51.332;12.410;2024-02-15T23:14:08;5.38;;;3.30;;
34541;SDS011;20784;51.332;12.410;2024-02-15T23:16:35;3.92;;;3.30;;
34541;SDS011;20784;51.332;12.410;2024-02-15T23:19:00;4.82;;;3.83;;
34541;SDS011;20784;51.332;12.410;2024-02-15T23:21:26;5.05;;;3.25;;
34541;SDS011;20784;51.332;12.410;2024-02-15T23:23:51;6.53;;;3.83;;
34541;SDS011;20784;51.332;12.410;2024-02-15T23:26:17;5.47;;;3.60;;
34541;SDS011;20784;51.332;12.410;2024-02-15T23:28:42;8.68;;;3.72;;
34541;SDS011;20784;51.332;12.410;2024-02-15T23:31:08;8.57;;;4.20;;
34541;SDS011;20784;51.332;12.410;2024-02-15T23:33:34;7.25;;;3.70;;
34541;SDS011;20784;51.332;12.410;2024-02-15T23:36:00;8.73;;;4.22;;
34541;SDS011;20784;51.332;12.410;2024-02-15T23:38:44;5.82;;;3.75;;
34541;SDS011;20784;51.332;12.410;2024-02-15T23:41:28;5.65;;;3.95;;
34541;SDS011;20784;51.332;12.410;2024-02-15T23:43:53;4.75;;;3.28;;
34541;SDS011;20784;51.332;12.410;2024-02-15T23:46:19;6.25;;;3.78;;
34541;SDS011;20784;51.332;12.410;2024-02-15T23:48:53;5.13;;;3.65;;
34541;SDS011;20784;51.332;12.410;2024-02-15T23:53:47;9.38;;;3.60;;
34541;SDS011;20784;51.332;12.410;2024-02-15T23:56:12;6.65;;;3.40;;
34541;SDS011;20784;51.332;12.410;2024-02-15T23:58:38;4.55;;;3.42;;
